sensor_id;sensor_type;location;lat;lon;timestamp;temperature;humidity
73121;DHT22;61307;49.628;-1.624;2023-03-01T00:02:18;17.60;34.60
73121;DHT22;61307;49.628;-1.624;2023-03-01T00:04:45;17.60;34.60
73121;DHT22;61307;49.628;-1.624;2023-03-01T00:07:12;17.60;34.50
73121;DHT22;61307;49.628;-1.624;2023-03-01T00:09:39;17.60;34.50
73121;DHT22;61307;49.628;-1.624;2023-03-01T00:12:07;17.50;34.40
73121;DHT22;61307;49.628;-1.624;2023-03-01T00:14:34;17.50;34.30
73121;DHT22;61307;49.628;-1.624;2023-03-01T00:17:02;17.50;34.30
73121;DHT22;61307;49.628;-1.624;2023-03-01T00:19:30;17.60;34.40
73121;DHT22;61307;49.628;-1.624;2023-03-01T00:21:58;17.50;34.40
73121;DHT22;61307;49.628;-1.624;2023-03-01T00:24:25;17.50;34.30
73121;DHT22;61307;49.628;-1.624;2023-03-01T00:26:53;17.50;34.30
73121;DHT22;61307;49.628;-1.624;2023-03-01T00:29:22;17.50;34.40
73121;DHT22;61307;49.628;-1.624;2023-03-01T00:31:49;17.50;34.30
73121;DHT22;61307;49.628;-1.624;2023-03-01T00:34:16;17.50;35.00
73121;DHT22;61307;49.628;-1.624;2023-03-01T00:36:45;17.50;34.30
73121;DHT22;61307;49.628;-1.624;2023-03-01T00:39:14;17.50;34.30
73121;DHT22;61307;49.628;-1.624;2023-03-01T00:41:42;17.40;34.30
73121;DHT22;61307;49.628;-1.624;2023-03-01T00:44:10;17.40;34.30
73121;DHT22;61307;49.628;-1.624;2023-03-01T00:46:37;17.40;34.30
73121;DHT22;61307;49.628;-1.624;2023-03-01T00:49:04;17.40;34.30
73121;DHT22;61307;49.628;-1.624;2023-03-01T00:51:32;17.40;34.30
73121;DHT22;61307;49.628;-1.624;2023-03-01T00:54:02;17.40;34.30
73121;DHT22;61307;49.628;-1.624;2023-03-01T00:56:29;17.40;34.20
73121;DHT22;61307;49.628;-1.624;2023-03-01T00:58:57;17.40;34.20
73121;DHT22;61307;49.628;-1.624;2023-03-01T01:01:25;17.40;34.10
73121;DHT22;61307;49.628;-1.624;2023-03-01T01:03:58;17.40;34.00
73121;DHT22;61307;49.628;-1.624;2023-03-01T01:06:26;17.40;34.00
73121;DHT22;61307;49.628;-1.624;2023-03-01T01:08:54;17.40;34.00
73121;DHT22;61307;49.628;-1.624;2023-03-01T01:11:25;17.40;33.90
73121;DHT22;61307;49.628;-1.624;2023-03-01T01:13:53;17.30;33.70
73121;DHT22;61307;49.628;-1.624;2023-03-01T01:16:22;17.30;33.70
73121;DHT22;61307;49.628;-1.624;2023-03-01T01:18:50;17.30;33.70
73121;DHT22;61307;49.628;-1.624;2023-03-01T01:21:20;17.30;33.70
73121;DHT22;61307;49.628;-1.624;2023-03-01T01:23:48;17.30;33.70
73121;DHT22;61307;49.628;-1.624;2023-03-01T01:26:17;17.30;33.60
73121;DHT22;61307;49.628;-1.624;2023-03-01T01:28:46;17.30;33.50
73121;DHT22;61307;49.628;-1.624;2023-03-01T01:31:14;17.20;33.50
73121;DHT22;61307;49.628;-1.624;2023-03-01T01:33:41;17.30;33.50
73121;DHT22;61307;49.628;-1.624;2023-03-01T01:36:09;17.30;33.50
73121;DHT22;61307;49.628;-1.624;2023-03-01T01:38:37;17.30;33.40
73121;DHT22;61307;49.628;-1.624;2023-03-01T01:41:05;17.20;33.30
73121;DHT22;61307;49.628;-1.624;2023-03-01T01:43:35;17.20;34.00
73121;DHT22;61307;49.628;-1.624;2023-03-01T01:46:05;17.20;33.30
73121;DHT22;61307;49.628;-1.624;2023-03-01T01:48:38;17.20;33.20
73121;DHT22;61307;49.628;-1.624;2023-03-01T01:51:10;17.20;33.20
73121;DHT22;61307;49.628;-1.624;2023-03-01T01:53:39;17.20;33.20
73121;DHT22;61307;49.628;-1.624;2023-03-01T01:56:08;17.20;33.20
73121;DHT22;61307;49.628;-1.624;2023-03-01T01:58:37;17.20;33.20
73121;DHT22;61307;49.628;-1.624;2023-03-01T02:01:07;17.20;33.10
73121;DHT22;61307;49.628;-1.624;2023-03-01T02:03:37;17.10;33.10
73121;DHT22;61307;49.628;-1.624;2023-03-01T02:06:13;17.10;33.10
73121;DHT22;61307;49.628;-1.624;2023-03-01T02:08:42;17.10;33.00
73121;DHT22;61307;49.628;-1.624;2023-03-01T02:11:11;17.10;32.90
73121;DHT22;61307;49.628;-1.624;2023-03-01T02:13:40;17.10;32.90
73121;DHT22;61307;49.628;-1.624;2023-03-01T02:16:11;17.10;32.90
73121;DHT22;61307;49.628;-1.624;2023-03-01T02:18:40;17.10;32.90
73121;DHT22;61307;49.628;-1.624;2023-03-01T02:21:20;17.10;32.90
73121;DHT22;61307;49.628;-1.624;2023-03-01T02:23:53;17.10;32.80
73121;DHT22;61307;49.628;-1.624;2023-03-01T02:26:29;17.10;32.80
73121;DHT22;61307;49.628;-1.624;2023-03-01T02:28:58;17.10;32.80
73121;DHT22;61307;49.628;-1.624;2023-03-01T02:31:26;17.10;32.80
73121;DHT22;61307;49.628;-1.624;2023-03-01T02:34:11;17.10;32.80
73121;DHT22;61307;49.628;-1.624;2023-03-01T02:36:40;17.10;32.80
73121;DHT22;61307;49.628;-1.624;2023-03-01T02:39:13;17.10;32.80
73121;DHT22;61307;49.628;-1.624;2023-03-01T02:41:46;17.10;32.80
73121;DHT22;61307;49.628;-1.624;2023-03-01T02:44:15;17.00;32.60
73121;DHT22;61307;49.628;-1.624;2023-03-01T02:46:44;17.00;32.60
73121;DHT22;61307;49.628;-1.624;2023-03-01T02:49:24;17.00;32.60
73121;DHT22;61307;49.628;-1.624;2023-03-01T02:52:34;17.00;32.60
73121;DHT22;61307;49.628;-1.624;2023-03-01T02:55:07;17.00;32.50
73121;DHT22;61307;49.628;-1.624;2023-03-01T02:57:37;17.00;32.60
73121;DHT22;61307;49.628;-1.624;2023-03-01T03:00:08;17.00;32.60
73121;DHT22;61307;49.628;-1.624;2023-03-01T03:02:36;17.00;32.50
73121;DHT22;61307;49.628;-1.624;2023-03-01T03:05:06;17.00;32.50
73121;DHT22;61307;49.628;-1.624;2023-03-01T03:07:34;17.00;32.50
73121;DHT22;61307;49.628;-1.624;2023-03-01T03:10:02;17.00;33.20
73121;DHT22;61307;49.628;-1.624;2023-03-01T03:12:30;17.00;32.50
73121;DHT22;61307;49.628;-1.624;2023-03-01T03:14:57;17.00;32.50
73121;DHT22;61307;49.628;-1.624;2023-03-01T03:17:25;17.00;32.50
73121;DHT22;61307;49.628;-1.624;2023-03-01T03:19:52;17.00;32.40
73121;DHT22;61307;49.628;-1.624;2023-03-01T03:22:20;17.00;32.50
73121;DHT22;61307;49.628;-1.624;2023-03-01T03:24:46;17.00;32.50
73121;DHT22;61307;49.628;-1.624;2023-03-01T03:27:14;17.00;32.40
73121;DHT22;61307;49.628;-1.624;2023-03-01T03:29:41;16.90;32.30
73121;DHT22;61307;49.628;-1.624;2023-03-01T03:32:08;16.90;32.30
73121;DHT22;61307;49.628;-1.624;2023-03-01T03:34:36;17.00;32.30
73121;DHT22;61307;49.628;-1.624;2023-03-01T03:37:03;17.00;32.30
73121;DHT22;61307;49.628;-1.624;2023-03-01T03:39:50;16.90;32.20
73121;DHT22;61307;49.628;-1.624;2023-03-01T03:42:20;16.90;32.20
73121;DHT22;61307;49.628;-1.624;2023-03-01T03:44:48;16.90;32.20
73121;DHT22;61307;49.628;-1.624;2023-03-01T03:47:15;16.90;32.20
73121;DHT22;61307;49.628;-1.624;2023-03-01T03:49:43;16.90;32.20
73121;DHT22;61307;49.628;-1.624;2023-03-01T03:52:11;16.90;32.20
73121;DHT22;61307;49.628;-1.624;2023-03-01T03:54:39;16.90;32.20
73121;DHT22;61307;49.628;-1.624;2023-03-01T03:57:07;16.90;32.20
73121;DHT22;61307;49.628;-1.624;2023-03-01T03:59:34;16.90;32.20
73121;DHT22;61307;49.628;-1.624;2023-03-01T04:02:01;16.90;32.20
73121;DHT22;61307;49.628;-1.624;2023-03-01T04:04:28;16.90;32.20
73121;DHT22;61307;49.628;-1.624;2023-03-01T04:06:57;16.90;32.20
73121;DHT22;61307;49.628;-1.624;2023-03-01T04:09:24;16.90;32.10
73121;DHT22;61307;49.628;-1.624;2023-03-01T04:11:51;16.90;32.10
73121;DHT22;61307;49.628;-1.624;2023-03-01T04:14:18;16.90;32.10
73121;DHT22;61307;49.628;-1.624;2023-03-01T04:16:45;16.90;32.10
73121;DHT22;61307;49.628;-1.624;2023-03-01T04:19:12;16.90;32.80
73121;DHT22;61307;49.628;-1.624;2023-03-01T04:21:40;16.80;32.00
73121;DHT22;61307;49.628;-1.624;2023-03-01T04:24:09;16.90;32.10
73121;DHT22;61307;49.628;-1.624;2023-03-01T04:26:36;16.90;32.10
73121;DHT22;61307;49.628;-1.624;2023-03-01T04:29:03;16.90;32.10
73121;DHT22;61307;49.628;-1.624;2023-03-01T04:31:30;16.90;32.00
73121;DHT22;61307;49.628;-1.624;2023-03-01T04:33:58;16.80;31.90
73121;DHT22;61307;49.628;-1.624;2023-03-01T04:36:27;16.80;31.90
73121;DHT22;61307;49.628;-1.624;2023-03-01T04:38:55;16.80;31.90
73121;DHT22;61307;49.628;-1.624;2023-03-01T04:41:24;16.90;32.00
73121;DHT22;61307;49.628;-1.624;2023-03-01T04:43:51;16.80;31.90
73121;DHT22;61307;49.628;-1.624;2023-03-01T04:46:20;16.80;31.90
73121;DHT22;61307;49.628;-1.624;2023-03-01T04:48:47;16.80;31.80
73121;DHT22;61307;49.628;-1.624;2023-03-01T04:51:15;16.80;31.90
73121;DHT22;61307;49.628;-1.624;2023-03-01T04:53:44;16.80;31.80
73121;DHT22;61307;49.628;-1.624;2023-03-01T04:56:11;16.80;31.90
73121;DHT22;61307;49.628;-1.624;2023-03-01T04:58:41;16.80;31.80
73121;DHT22;61307;49.628;-1.624;2023-03-01T05:01:09;16.80;31.80
73121;DHT22;61307;49.628;-1.624;2023-03-01T05:03:41;16.80;31.80
73121;DHT22;61307;49.628;-1.624;2023-03-01T05:06:08;16.80;31.90
73121;DHT22;61307;49.628;-1.624;2023-03-01T05:08:37;16.80;31.80
73121;DHT22;61307;49.628;-1.624;2023-03-01T05:11:04;16.80;31.80
73121;DHT22;61307;49.628;-1.624;2023-03-01T05:13:34;16.80;31.80
73121;DHT22;61307;49.628;-1.624;2023-03-01T05:16:03;16.80;31.80
73121;DHT22;61307;49.628;-1.624;2023-03-01T05:18:32;16.70;31.70
73121;DHT22;61307;49.628;-1.624;2023-03-01T05:21:03;16.70;31.70
73121;DHT22;61307;49.628;-1.624;2023-03-01T05:23:30;16.80;31.80
73121;DHT22;61307;49.628;-1.624;2023-03-01T05:25:58;16.70;31.70
73121;DHT22;61307;49.628;-1.624;2023-03-01T05:28:25;16.70;31.70
73121;DHT22;61307;49.628;-1.624;2023-03-01T05:30:53;16.70;31.70
73121;DHT22;61307;49.628;-1.624;2023-03-01T05:33:23;16.70;31.70
73121;DHT22;61307;49.628;-1.624;2023-03-01T05:35:50;16.70;31.70
73121;DHT22;61307;49.628;-1.624;2023-03-01T05:38:20;16.70;31.60
73121;DHT22;61307;49.628;-1.624;2023-03-01T05:40:48;16.70;31.70
73121;DHT22;61307;49.628;-1.624;2023-03-01T05:43:16;16.70;31.60
73121;DHT22;61307;49.628;-1.624;2023-03-01T05:45:44;16.80;31.60
73121;DHT22;61307;49.628;-1.624;2023-03-01T05:48:12;16.70;31.50
73121;DHT22;61307;49.628;-1.624;2023-03-01T05:50:42;16.80;31.50
73121;DHT22;61307;49.628;-1.624;2023-03-01T05:53:11;16.80;31.50
73121;DHT22;61307;49.628;-1.624;2023-03-01T05:55:39;16.80;31.40
73121;DHT22;61307;49.628;-1.624;2023-03-01T05:58:09;16.90;31.50
73121;DHT22;61307;49.628;-1.624;2023-03-01T06:00:36;16.90;31.50
73121;DHT22;61307;49.628;-1.624;2023-03-01T06:03:03;17.00;31.60
73121;DHT22;61307;49.628;-1.624;2023-03-01T06:05:31;17.00;31.50
73121;DHT22;61307;49.628;-1.624;2023-03-01T06:08:00;17.10;31.60
73121;DHT22;61307;49.628;-1.624;2023-03-01T06:10:28;17.10;31.60
73121;DHT22;61307;49.628;-1.624;2023-03-01T06:12:55;17.20;31.60
73121;DHT22;61307;49.628;-1.624;2023-03-01T06:15:22;17.20;31.60
73121;DHT22;61307;49.628;-1.624;2023-03-01T06:17:50;17.30;31.60
73121;DHT22;61307;49.628;-1.624;2023-03-01T06:20:19;17.30;31.50
73121;DHT22;61307;49.628;-1.624;2023-03-01T06:22:47;17.40;31.50
73121;DHT22;61307;49.628;-1.624;2023-03-01T06:25:18;17.40;31.50
73121;DHT22;61307;49.628;-1.624;2023-03-01T06:27:46;17.50;31.50
73121;DHT22;61307;49.628;-1.624;2023-03-01T06:30:16;17.50;31.40
73121;DHT22;61307;49.628;-1.624;2023-03-01T06:32:44;17.60;31.40
73121;DHT22;61307;49.628;-1.624;2023-03-01T06:35:13;17.60;31.30
73121;DHT22;61307;49.628;-1.624;2023-03-01T06:37:43;17.60;31.20
73121;DHT22;61307;49.628;-1.624;2023-03-01T06:40:11;17.70;31.20
73121;DHT22;61307;49.628;-1.624;2023-03-01T06:42:42;17.70;31.20
73121;DHT22;61307;49.628;-1.624;2023-03-01T06:45:10;17.70;31.20
73121;DHT22;61307;49.628;-1.624;2023-03-01T06:47:37;17.80;31.20
73121;DHT22;61307;49.628;-1.624;2023-03-01T06:50:05;17.80;31.10
73121;DHT22;61307;49.628;-1.624;2023-03-01T06:52:32;17.80;31.10
73121;DHT22;61307;49.628;-1.624;2023-03-01T06:55:00;17.90;31.10
73121;DHT22;61307;49.628;-1.624;2023-03-01T06:57:27;17.90;31.00
73121;DHT22;61307;49.628;-1.624;2023-03-01T06:59:56;18.00;31.00
73121;DHT22;61307;49.628;-1.624;2023-03-01T07:02:23;18.00;31.00
73121;DHT22;61307;49.628;-1.624;2023-03-01T07:04:50;18.00;31.00
73121;DHT22;61307;49.628;-1.624;2023-03-01T07:07:18;18.00;30.90
73121;DHT22;61307;49.628;-1.624;2023-03-01T07:09:46;18.10;31.00
73121;DHT22;61307;49.628;-1.624;2023-03-01T07:12:13;18.10;31.10
73121;DHT22;61307;49.628;-1.624;2023-03-01T07:14:41;18.10;31.00
73121;DHT22;61307;49.628;-1.624;2023-03-01T07:17:09;18.20;31.10
73121;DHT22;61307;49.628;-1.624;2023-03-01T07:19:36;18.30;31.20
73121;DHT22;61307;49.628;-1.624;2023-03-01T07:22:03;18.30;31.10
73121;DHT22;61307;49.628;-1.624;2023-03-01T07:24:33;18.30;31.00
73121;DHT22;61307;49.628;-1.624;2023-03-01T07:27:00;18.40;31.10
73121;DHT22;61307;49.628;-1.624;2023-03-01T07:29:27;18.40;31.00
73121;DHT22;61307;49.628;-1.624;2023-03-01T07:31:55;18.50;31.00
73121;DHT22;61307;49.628;-1.624;2023-03-01T07:34:24;18.50;30.90
73121;DHT22;61307;49.628;-1.624;2023-03-01T07:36:51;18.50;31.50
73121;DHT22;61307;49.628;-1.624;2023-03-01T07:39:18;18.60;30.90
73121;DHT22;61307;49.628;-1.624;2023-03-01T07:41:45;18.60;30.40
73121;DHT22;61307;49.628;-1.624;2023-03-01T07:44:12;18.60;30.30
73121;DHT22;61307;49.628;-1.624;2023-03-01T07:46:40;18.50;30.20
73121;DHT22;61307;49.628;-1.624;2023-03-01T07:49:07;18.50;30.20
73121;DHT22;61307;49.628;-1.624;2023-03-01T07:51:36;18.40;30.10
73121;DHT22;61307;49.628;-1.624;2023-03-01T07:54:03;18.40;30.10
73121;DHT22;61307;49.628;-1.624;2023-03-01T07:56:30;18.40;30.10
73121;DHT22;61307;49.628;-1.624;2023-03-01T07:58:59;18.40;30.10
73121;DHT22;61307;49.628;-1.624;2023-03-01T08:01:26;18.40;30.10
73121;DHT22;61307;49.628;-1.624;2023-03-01T08:03:53;18.40;30.10
73121;DHT22;61307;49.628;-1.624;2023-03-01T08:06:20;18.40;30.10
73121;DHT22;61307;49.628;-1.624;2023-03-01T08:08:49;18.40;30.10
73121;DHT22;61307;49.628;-1.624;2023-03-01T08:11:16;18.40;30.10
73121;DHT22;61307;49.628;-1.624;2023-03-01T08:13:46;18.40;30.10
73121;DHT22;61307;49.628;-1.624;2023-03-01T08:16:15;18.40;30.10
73121;DHT22;61307;49.628;-1.624;2023-03-01T08:18:43;18.40;30.10
73121;DHT22;61307;49.628;-1.624;2023-03-01T08:21:12;18.40;30.10
73121;DHT22;61307;49.628;-1.624;2023-03-01T08:23:40;18.40;30.20
73121;DHT22;61307;49.628;-1.624;2023-03-01T08:26:11;18.40;30.10
73121;DHT22;61307;49.628;-1.624;2023-03-01T08:28:38;18.40;30.10
73121;DHT22;61307;49.628;-1.624;2023-03-01T08:31:14;18.40;30.10
73121;DHT22;61307;49.628;-1.624;2023-03-01T08:33:41;18.40;30.10
73121;DHT22;61307;49.628;-1.624;2023-03-01T08:36:08;18.40;30.10
73121;DHT22;61307;49.628;-1.624;2023-03-01T08:38:36;18.40;30.10
73121;DHT22;61307;49.628;-1.624;2023-03-01T08:41:03;18.40;30.10
73121;DHT22;61307;49.628;-1.624;2023-03-01T08:43:32;18.50;30.20
73121;DHT22;61307;49.628;-1.624;2023-03-01T08:45:59;18.40;30.10
73121;DHT22;61307;49.628;-1.624;2023-03-01T08:48:28;18.40;30.10
73121;DHT22;61307;49.628;-1.624;2023-03-01T08:50:55;18.50;30.20
73121;DHT22;61307;49.628;-1.624;2023-03-01T08:53:22;18.50;30.20
73121;DHT22;61307;49.628;-1.624;2023-03-01T08:55:49;18.50;30.20
73121;DHT22;61307;49.628;-1.624;2023-03-01T08:58:16;18.50;30.20
73121;DHT22;61307;49.628;-1.624;2023-03-01T09:00:45;18.60;30.30
73121;DHT22;61307;49.628;-1.624;2023-03-01T09:03:12;18.60;30.30
73121;DHT22;61307;49.628;-1.624;2023-03-01T09:05:39;18.60;30.30
73121;DHT22;61307;49.628;-1.624;2023-03-01T09:08:06;18.60;30.30
73121;DHT22;61307;49.628;-1.624;2023-03-01T09:10:37;18.60;30.30
73121;DHT22;61307;49.628;-1.624;2023-03-01T09:13:05;18.60;30.30
73121;DHT22;61307;49.628;-1.624;2023-03-01T09:15:32;18.60;30.30
73121;DHT22;61307;49.628;-1.624;2023-03-01T09:18:00;18.60;30.30
73121;DHT22;61307;49.628;-1.624;2023-03-01T09:20:28;18.60;30.30
73121;DHT22;61307;49.628;-1.624;2023-03-01T09:23:02;18.60;30.30
73121;DHT22;61307;49.628;-1.624;2023-03-01T09:25:29;18.60;30.30
73121;DHT22;61307;49.628;-1.624;2023-03-01T09:27:56;18.60;30.30
73121;DHT22;61307;49.628;-1.624;2023-03-01T09:30:23;18.60;30.30
73121;DHT22;61307;49.628;-1.624;2023-03-01T09:32:51;18.70;30.40
73121;DHT22;61307;49.628;-1.624;2023-03-01T09:35:21;18.70;30.40
73121;DHT22;61307;49.628;-1.624;2023-03-01T09:37:51;18.70;30.40
73121;DHT22;61307;49.628;-1.624;2023-03-01T09:40:21;18.70;30.40
73121;DHT22;61307;49.628;-1.624;2023-03-01T09:42:56;18.70;30.40
73121;DHT22;61307;49.628;-1.624;2023-03-01T09:45:32;18.70;30.40
73121;DHT22;61307;49.628;-1.624;2023-03-01T09:48:00;18.70;30.40
73121;DHT22;61307;49.628;-1.624;2023-03-01T09:50:35;18.70;30.40
73121;DHT22;61307;49.628;-1.624;2023-03-01T09:53:05;18.70;30.40
73121;DHT22;61307;49.628;-1.624;2023-03-01T09:55:37;18.70;30.40
73121;DHT22;61307;49.628;-1.624;2023-03-01T09:58:24;18.70;30.40
73121;DHT22;61307;49.628;-1.624;2023-03-01T10:00:52;18.70;30.40
73121;DHT22;61307;49.628;-1.624;2023-03-01T10:03:26;18.70;30.40
73121;DHT22;61307;49.628;-1.624;2023-03-01T10:06:01;18.70;30.40
73121;DHT22;61307;49.628;-1.624;2023-03-01T10:08:34;18.70;30.40
73121;DHT22;61307;49.628;-1.624;2023-03-01T10:11:12;18.80;31.10
73121;DHT22;61307;49.628;-1.624;2023-03-01T10:13:47;18.80;30.40
73121;DHT22;61307;49.628;-1.624;2023-03-01T10:16:22;18.80;30.40
73121;DHT22;61307;49.628;-1.624;2023-03-01T10:18:53;18.80;30.40
73121;DHT22;61307;49.628;-1.624;2023-03-01T10:21:23;18.80;30.40
73121;DHT22;61307;49.628;-1.624;2023-03-01T10:23:53;18.80;30.40
73121;DHT22;61307;49.628;-1.624;2023-03-01T10:26:37;18.80;30.40
73121;DHT22;61307;49.628;-1.624;2023-03-01T10:29:07;18.80;30.40
73121;DHT22;61307;49.628;-1.624;2023-03-01T10:31:43;18.80;30.40
73121;DHT22;61307;49.628;-1.624;2023-03-01T10:34:13;18.90;30.50
73121;DHT22;61307;49.628;-1.624;2023-03-01T10:36:47;18.90;30.50
73121;DHT22;61307;49.628;-1.624;2023-03-01T10:39:17;18.90;30.50
73121;DHT22;61307;49.628;-1.624;2023-03-01T10:41:59;18.90;30.50
73121;DHT22;61307;49.628;-1.624;2023-03-01T10:44:38;18.90;30.50
73121;DHT22;61307;49.628;-1.624;2023-03-01T10:47:16;18.90;30.50
73121;DHT22;61307;49.628;-1.624;2023-03-01T10:49:52;18.90;30.50
73121;DHT22;61307;49.628;-1.624;2023-03-01T10:52:23;18.90;31.20
73121;DHT22;61307;49.628;-1.624;2023-03-01T10:54:55;18.90;30.50
73121;DHT22;61307;49.628;-1.624;2023-03-01T10:57:33;18.90;30.50
73121;DHT22;61307;49.628;-1.624;2023-03-01T11:00:21;18.90;30.50
73121;DHT22;61307;49.628;-1.624;2023-03-01T11:02:50;18.90;30.50
73121;DHT22;61307;49.628;-1.624;2023-03-01T11:05:20;18.90;30.50
73121;DHT22;61307;49.628;-1.624;2023-03-01T11:07:52;18.90;30.50
73121;DHT22;61307;49.628;-1.624;2023-03-01T11:10:22;18.90;30.50
73121;DHT22;61307;49.628;-1.624;2023-03-01T11:12:50;18.90;30.50
73121;DHT22;61307;49.628;-1.624;2023-03-01T11:15:24;18.90;30.50
73121;DHT22;61307;49.628;-1.624;2023-03-01T11:17:52;18.90;30.50
73121;DHT22;61307;49.628;-1.624;2023-03-01T11:20:25;18.90;30.50
73121;DHT22;61307;49.628;-1.624;2023-03-01T11:22:57;18.90;30.50
73121;DHT22;61307;49.628;-1.624;2023-03-01T11:25:27;18.90;30.50
73121;DHT22;61307;49.628;-1.624;2023-03-01T11:27:56;18.90;30.50
73121;DHT22;61307;49.628;-1.624;2023-03-01T11:30:28;18.90;30.50
73121;DHT22;61307;49.628;-1.624;2023-03-01T11:33:05;18.90;30.50
73121;DHT22;61307;49.628;-1.624;2023-03-01T11:35:37;18.90;30.50
73121;DHT22;61307;49.628;-1.624;2023-03-01T11:38:16;18.90;30.50
73121;DHT22;61307;49.628;-1.624;2023-03-01T11:40:49;18.90;30.50
73121;DHT22;61307;49.628;-1.624;2023-03-01T11:43:23;19.00;30.60
73121;DHT22;61307;49.628;-1.624;2023-03-01T11:46:24;18.90;30.50
73121;DHT22;61307;49.628;-1.624;2023-03-01T11:49:00;19.00;30.60
73121;DHT22;61307;49.628;-1.624;2023-03-01T11:51:41;18.90;30.50
73121;DHT22;61307;49.628;-1.624;2023-03-01T11:54:27;19.00;30.60
73121;DHT22;61307;49.628;-1.624;2023-03-01T11:57:00;19.00;30.60
73121;DHT22;61307;49.628;-1.624;2023-03-01T11:59:51;19.00;30.60
73121;DHT22;61307;49.628;-1.624;2023-03-01T12:02:56;19.00;30.60
73121;DHT22;61307;49.628;-1.624;2023-03-01T12:05:55;19.00;30.60
73121;DHT22;61307;49.628;-1.624;2023-03-01T12:08:35;19.00;30.60
73121;DHT22;61307;49.628;-1.624;2023-03-01T12:11:16;19.00;30.60
73121;DHT22;61307;49.628;-1.624;2023-03-01T12:14:17;19.00;30.60
73121;DHT22;61307;49.628;-1.624;2023-03-01T12:23:11;19.00;30.60
73121;DHT22;61307;49.628;-1.624;2023-03-01T12:25:45;19.00;30.60
73121;DHT22;61307;49.628;-1.624;2023-03-01T12:34:15;19.10;30.70
73121;DHT22;61307;49.628;-1.624;2023-03-01T12:36:58;19.10;30.80
73121;DHT22;61307;49.628;-1.624;2023-03-01T12:39:43;19.10;30.70
73121;DHT22;61307;49.628;-1.624;2023-03-01T12:42:21;19.10;30.90
73121;DHT22;61307;49.628;-1.624;2023-03-01T12:45:02;19.20;31.30
73121;DHT22;61307;49.628;-1.624;2023-03-01T12:47:49;19.10;31.40
73121;DHT22;61307;49.628;-1.624;2023-03-01T12:50:24;19.20;31.40
73121;DHT22;61307;49.628;-1.624;2023-03-01T12:52:55;19.20;31.40
73121;DHT22;61307;49.628;-1.624;2023-03-01T12:55:28;19.20;31.20
73121;DHT22;61307;49.628;-1.624;2023-03-01T12:58:03;19.20;31.10
73121;DHT22;61307;49.628;-1.624;2023-03-01T13:00:38;19.20;30.90
73121;DHT22;61307;49.628;-1.624;2023-03-01T13:03:16;19.20;30.90
73121;DHT22;61307;49.628;-1.624;2023-03-01T13:05:57;19.20;30.80
73121;DHT22;61307;49.628;-1.624;2023-03-01T13:08:35;19.20;30.80
73121;DHT22;61307;49.628;-1.624;2023-03-01T13:11:15;19.20;30.80
73121;DHT22;61307;49.628;-1.624;2023-03-01T13:17:00;19.30;30.90
73121;DHT22;61307;49.628;-1.624;2023-03-01T13:19:30;19.30;30.90
73121;DHT22;61307;49.628;-1.624;2023-03-01T13:22:25;19.30;30.90
73121;DHT22;61307;49.628;-1.624;2023-03-01T13:27:49;19.30;30.90
73121;DHT22;61307;49.628;-1.624;2023-03-01T13:30:38;19.40;31.00
73121;DHT22;61307;49.628;-1.624;2023-03-01T13:33:34;19.40;30.90
73121;DHT22;61307;49.628;-1.624;2023-03-01T13:36:11;19.40;30.90
73121;DHT22;61307;49.628;-1.624;2023-03-01T13:38:46;19.40;30.90
73121;DHT22;61307;49.628;-1.624;2023-03-01T13:41:16;19.40;30.90
73121;DHT22;61307;49.628;-1.624;2023-03-01T13:43:52;19.50;31.00
73121;DHT22;61307;49.628;-1.624;2023-03-01T13:46:23;19.50;31.00
73121;DHT22;61307;49.628;-1.624;2023-03-01T13:48:52;19.50;30.80
73121;DHT22;61307;49.628;-1.624;2023-03-01T13:51:24;19.50;30.80
73121;DHT22;61307;49.628;-1.624;2023-03-01T13:53:56;19.50;30.80
73121;DHT22;61307;49.628;-1.624;2023-03-01T13:56:26;19.60;30.90
73121;DHT22;61307;49.628;-1.624;2023-03-01T13:59:03;19.60;30.80
73121;DHT22;61307;49.628;-1.624;2023-03-01T14:01:34;19.50;31.00
73121;DHT22;61307;49.628;-1.624;2023-03-01T14:04:17;19.60;31.10
73121;DHT22;61307;49.628;-1.624;2023-03-01T14:06:47;19.60;31.10
73121;DHT22;61307;49.628;-1.624;2023-03-01T14:09:22;19.50;31.20
73121;DHT22;61307;49.628;-1.624;2023-03-01T14:12:09;19.50;31.20
73121;DHT22;61307;49.628;-1.624;2023-03-01T14:14:48;19.50;31.00
73121;DHT22;61307;49.628;-1.624;2023-03-01T14:17:37;19.50;31.00
73121;DHT22;61307;49.628;-1.624;2023-03-01T14:20:12;19.50;31.00
73121;DHT22;61307;49.628;-1.624;2023-03-01T14:22:43;19.50;31.00
73121;DHT22;61307;49.628;-1.624;2023-03-01T14:25:20;19.50;31.00
73121;DHT22;61307;49.628;-1.624;2023-03-01T14:27:52;19.40;30.90
73121;DHT22;61307;49.628;-1.624;2023-03-01T14:30:23;19.40;30.90
73121;DHT22;61307;49.628;-1.624;2023-03-01T14:33:02;19.40;30.90
73121;DHT22;61307;49.628;-1.624;2023-03-01T14:35:36;19.40;31.00
73121;DHT22;61307;49.628;-1.624;2023-03-01T14:38:20;19.40;30.90
73121;DHT22;61307;49.628;-1.624;2023-03-01T14:40:49;19.40;31.00
73121;DHT22;61307;49.628;-1.624;2023-03-01T14:43:21;19.40;31.10
73121;DHT22;61307;49.628;-1.624;2023-03-01T14:45:59;19.50;31.20
73121;DHT22;61307;49.628;-1.624;2023-03-01T14:48:32;19.50;31.10
73121;DHT22;61307;49.628;-1.624;2023-03-01T14:51:01;19.50;31.10
73121;DHT22;61307;49.628;-1.624;2023-03-01T14:53:33;19.50;31.10
73121;DHT22;61307;49.628;-1.624;2023-03-01T14:56:01;19.50;31.00
73121;DHT22;61307;49.628;-1.624;2023-03-01T14:58:31;19.50;31.00
73121;DHT22;61307;49.628;-1.624;2023-03-01T15:01:00;19.60;31.10
73121;DHT22;61307;49.628;-1.624;2023-03-01T15:03:33;19.60;31.10
73121;DHT22;61307;49.628;-1.624;2023-03-01T15:06:01;19.70;31.20
73121;DHT22;61307;49.628;-1.624;2023-03-01T15:08:29;19.60;30.90
73121;DHT22;61307;49.628;-1.624;2023-03-01T15:11:05;19.70;31.00
73121;DHT22;61307;49.628;-1.624;2023-03-01T15:13:43;19.70;31.10
73121;DHT22;61307;49.628;-1.624;2023-03-01T15:16:13;19.70;31.00
73121;DHT22;61307;49.628;-1.624;2023-03-01T15:18:44;19.70;31.10
73121;DHT22;61307;49.628;-1.624;2023-03-01T15:21:17;19.70;31.20
73121;DHT22;61307;49.628;-1.624;2023-03-01T15:23:49;19.80;31.20
73121;DHT22;61307;49.628;-1.624;2023-03-01T15:26:29;19.80;31.20
73121;DHT22;61307;49.628;-1.624;2023-03-01T15:28:59;19.80;31.20
73121;DHT22;61307;49.628;-1.624;2023-03-01T15:31:28;19.80;31.20
73121;DHT22;61307;49.628;-1.624;2023-03-01T15:34:08;19.90;31.30
73121;DHT22;61307;49.628;-1.624;2023-03-01T15:36:45;19.90;31.30
73121;DHT22;61307;49.628;-1.624;2023-03-01T15:39:35;19.90;31.30
73121;DHT22;61307;49.628;-1.624;2023-03-01T15:42:07;19.90;31.30
73121;DHT22;61307;49.628;-1.624;2023-03-01T15:44:35;19.90;31.30
73121;DHT22;61307;49.628;-1.624;2023-03-01T15:47:21;19.90;31.30
73121;DHT22;61307;49.628;-1.624;2023-03-01T15:49:52;19.90;31.30
73121;DHT22;61307;49.628;-1.624;2023-03-01T15:52:23;19.90;31.30
73121;DHT22;61307;49.628;-1.624;2023-03-01T15:54:55;20.00;31.40
73121;DHT22;61307;49.628;-1.624;2023-03-01T15:57:24;20.00;31.30
73121;DHT22;61307;49.628;-1.624;2023-03-01T15:59:51;19.90;31.30